sensor_id;sensor_type;location;lat;lon;timestamp;P1;durP1;ratioP1;P2;durP2;ratioP2
1993;SDS011;998;49.906;10.908;2024-02-23T00:01:33;5.60;;;3.27;;
1993;SDS011;998;49.906;10.908;2024-02-23T00:04:00;6.13;;;3.53;;
1993;SDS011;998;49.906;10.908;2024-02-23T00:06:28;8.00;;;3.57;;
1993;SDS011;998;49.906;10.908;2024-02-23T00:08:55;5.10;;;2.87;;
1993;SDS011;998;49.906;10.908;2024-02-23T00:11:23;5.33;;;2.90;;
1993;SDS011;998;49.906;10.908;2024-02-23T00:13:50;5.43;;;2.40;;
1993;SDS011;998;49.906;10.908;2024-02-23T00:16:18;14.60;;;8.77;;
1993;SDS011;998;49.906;10.908;2024-02-23T00:18:46;5.67;;;3.03;;
1993;SDS011;998;49.906;10.908;2024-02-23T00:21:14;5.13;;;2.70;;
1993;SDS011;998;49.906;10.908;2024-02-23T00:23:41;4.50;;;2.30;;
1993;SDS011;998;49.906;10.908;2024-02-23T00:26:08;5.47;;;2.90;;
1993;SDS011;998;49.906;10.908;2024-02-23T00:28:36;7.50;;;3.67;;
1993;SDS011;998;49.906;10.908;2024-02-23T00:31:03;4.33;;;2.27;;
1993;SDS011;998;49.906;10.908;2024-02-23T00:33:31;4.37;;;2.30;;
1993;SDS011;998;49.906;10.908;2024-02-23T00:36:00;4.80;;;2.57;;
1993;SDS011;998;49.906;10.908;2024-02-23T00:38:27;3.70;;;1.83;;
1993;SDS011;998;49.906;10.908;2024-02-23T00:40:54;6.00;;;3.40;;
1993;SDS011;998;49.906;10.908;2024-02-23T00:43:22;5.33;;;3.10;;
1993;SDS011;998;49.906;10.908;2024-02-23T00:45:49;4.77;;;2.50;;
1993;SDS011;998;49.906;10.908;2024-02-23T00:48:16;4.50;;;2.40;;
1993;SDS011;998;49.906;10.908;2024-02-23T00:50:44;7.93;;;3.50;;
1993;SDS011;998;49.906;10.908;2024-02-23T00:53:13;5.73;;;2.90;;
1993;SDS011;998;49.906;10.908;2024-02-23T00:55:40;4.50;;;2.57;;
1993;SDS011;998;49.906;10.908;2024-02-23T00:58:08;5.47;;;2.90;;
1993;SDS011;998;49.906;10.908;2024-02-23T01:00:36;7.70;;;4.37;;
1993;SDS011;998;49.906;10.908;2024-02-23T01:03:03;4.17;;;2.10;;
1993;SDS011;998;49.906;10.908;2024-02-23T01:05:31;7.23;;;2.60;;
1993;SDS011;998;49.906;10.908;2024-02-23T01:07:58;5.40;;;2.77;;
1993;SDS011;998;49.906;10.908;2024-02-23T01:10:27;4.73;;;2.53;;
1993;SDS011;998;49.906;10.908;2024-02-23T01:12:54;6.50;;;3.60;;
1993;SDS011;998;49.906;10.908;2024-02-23T01:15:22;8.80;;;3.50;;
1993;SDS011;998;49.906;10.908;2024-02-23T01:17:50;7.70;;;4.50;;
1993;SDS011;998;49.906;10.908;2024-02-23T01:20:17;4.30;;;2.20;;
1993;SDS011;998;49.906;10.908;2024-02-23T01:22:44;6.80;;;2.57;;
1993;SDS011;998;49.906;10.908;2024-02-23T01:25:12;4.37;;;2.20;;
1993;SDS011;998;49.906;10.908;2024-02-23T01:27:42;5.97;;;3.20;;
1993;SDS011;998;49.906;10.908;2024-02-23T01:30:10;7.23;;;3.13;;
1993;SDS011;998;49.906;10.908;2024-02-23T01:32:38;5.97;;;2.67;;
1993;SDS011;998;49.906;10.908;2024-02-23T01:35:06;7.93;;;3.47;;
1993;SDS011;998;49.906;10.908;2024-02-23T01:37:34;3.93;;;2.10;;
1993;SDS011;998;49.906;10.908;2024-02-23T01:40:02;5.47;;;2.57;;
1993;SDS011;998;49.906;10.908;2024-02-23T01:42:30;4.70;;;2.00;;
1993;SDS011;998;49.906;10.908;2024-02-23T01:44:58;4.53;;;2.30;;
1993;SDS011;998;49.906;10.908;2024-02-23T01:47:26;6.50;;;2.77;;
1993;SDS011;998;49.906;10.908;2024-02-23T01:49:55;6.50;;;3.27;;
1993;SDS011;998;49.906;10.908;2024-02-23T01:52:23;6.20;;;3.20;;
1993;SDS011;998;49.906;10.908;2024-02-23T01:54:51;5.33;;;2.97;;
1993;SDS011;998;49.906;10.908;2024-02-23T01:57:18;7.00;;;3.77;;
1993;SDS011;998;49.906;10.908;2024-02-23T01:59:47;5.20;;;2.93;;
1993;SDS011;998;49.906;10.908;2024-02-23T02:02:17;4.60;;;2.37;;
1993;SDS011;998;49.906;10.908;2024-02-23T02:04:44;6.93;;;3.87;;
1993;SDS011;998;49.906;10.908;2024-02-23T02:07:12;4.27;;;2.17;;
1993;SDS011;998;49.906;10.908;2024-02-23T02:09:39;4.80;;;2.37;;
1993;SDS011;998;49.906;10.908;2024-02-23T02:12:07;4.50;;;2.20;;
1993;SDS011;998;49.906;10.908;2024-02-23T02:14:35;4.80;;;2.50;;
1993;SDS011;998;49.906;10.908;2024-02-23T02:17:02;4.57;;;2.33;;
1993;SDS011;998;49.906;10.908;2024-02-23T02:19:32;5.37;;;3.03;;
1993;SDS011;998;49.906;10.908;2024-02-23T02:21:59;5.10;;;2.40;;
1993;SDS011;998;49.906;10.908;2024-02-23T02:24:27;8.43;;;3.73;;
1993;SDS011;998;49.906;10.908;2024-02-23T02:26:54;6.80;;;3.47;;
1993;SDS011;998;49.906;10.908;2024-02-23T02:29:22;8.07;;;2.63;;
1993;SDS011;998;49.906;10.908;2024-02-23T02:31:49;6.80;;;3.53;;
1993;SDS011;998;49.906;10.908;2024-02-23T02:34:16;6.27;;;3.53;;
1993;SDS011;998;49.906;10.908;2024-02-23T02:36:45;6.80;;;2.50;;
1993;SDS011;998;49.906;10.908;2024-02-23T02:39:13;6.60;;;3.47;;
1993;SDS011;998;49.906;10.908;2024-02-23T02:41:40;6.87;;;3.30;;
1993;SDS011;998;49.906;10.908;2024-02-23T02:44:08;9.37;;;5.33;;
1993;SDS011;998;49.906;10.908;2024-02-23T02:46:35;6.90;;;3.80;;
1993;SDS011;998;49.906;10.908;2024-02-23T02:49:03;5.00;;;2.73;;
1993;SDS011;998;49.906;10.908;2024-02-23T02:51:30;11.23;;;4.27;;
1993;SDS011;998;49.906;10.908;2024-02-23T02:53:59;5.67;;;2.50;;
1993;SDS011;998;49.906;10.908;2024-02-23T02:56:26;4.57;;;2.30;;
1993;SDS011;998;49.906;10.908;2024-02-23T02:58:54;5.77;;;2.50;;
1993;SDS011;998;49.906;10.908;2024-02-23T03:01:22;5.40;;;2.43;;
1993;SDS011;998;49.906;10.908;2024-02-23T03:03:49;6.97;;;3.83;;
1993;SDS011;998;49.906;10.908;2024-02-23T03:06:17;5.17;;;2.70;;
1993;SDS011;998;49.906;10.908;2024-02-23T03:08:43;4.43;;;2.30;;
1993;SDS011;998;49.906;10.908;2024-02-23T03:11:15;2.50;;;1.10;;
1993;SDS011;998;49.906;10.908;2024-02-23T03:14:08;5.80;;;2.63;;
1993;SDS011;998;49.906;10.908;2024-02-23T03:16:49;3.37;;;1.70;;
1993;SDS011;998;49.906;10.908;2024-02-23T03:19:16;7.07;;;2.87;;
1993;SDS011;998;49.906;10.908;2024-02-23T03:22:02;5.63;;;2.70;;
1993;SDS011;998;49.906;10.908;2024-02-23T03:24:30;7.43;;;2.90;;
1993;SDS011;998;49.906;10.908;2024-02-23T03:26:58;3.83;;;1.77;;
1993;SDS011;998;49.906;10.908;2024-02-23T03:29:25;7.43;;;3.93;;
1993;SDS011;998;49.906;10.908;2024-02-23T03:31:54;8.57;;;4.53;;
1993;SDS011;998;49.906;10.908;2024-02-23T03:34:21;6.43;;;3.27;;
1993;SDS011;998;49.906;10.908;2024-02-23T03:36:49;4.67;;;2.40;;
1993;SDS011;998;49.906;10.908;2024-02-23T03:39:16;6.10;;;2.40;;
1993;SDS011;998;49.906;10.908;2024-02-23T03:41:49;6.87;;;3.80;;
1993;SDS011;998;49.906;10.908;2024-02-23T03:44:25;4.47;;;2.10;;
1993;SDS011;998;49.906;10.908;2024-02-23T03:47:04;5.67;;;3.10;;
1993;SDS011;998;49.906;10.908;2024-02-23T03:49:32;6.40;;;3.50;;
1993;SDS011;998;49.906;10.908;2024-02-23T03:51:59;5.10;;;2.57;;
1993;SDS011;998;49.906;10.908;2024-02-23T03:54:26;5.30;;;3.07;;
1993;SDS011;998;49.906;10.908;2024-02-23T03:56:54;5.00;;;2.53;;
1993;SDS011;998;49.906;10.908;2024-02-23T03:59:21;5.67;;;3.17;;
1993;SDS011;998;49.906;10.908;2024-02-23T04:01:50;6.73;;;3.70;;
1993;SDS011;998;49.906;10.908;2024-02-23T04:04:18;5.53;;;2.40;;
1993;SDS011;998;49.906;10.908;2024-02-23T04:06:45;6.90;;;3.73;;
1993;SDS011;998;49.906;10.908;2024-02-23T04:09:12;5.90;;;2.77;;
1993;SDS011;998;49.906;10.908;2024-02-23T04:11:40;9.83;;;4.07;;
1993;SDS011;998;49.906;10.908;2024-02-23T04:14:07;7.80;;;4.13;;
1993;SDS011;998;49.906;10.908;2024-02-23T04:16:35;9.70;;;5.10;;
1993;SDS011;998;49.906;10.908;2024-02-23T04:19:03;5.73;;;3.20;;
1993;SDS011;998;49.906;10.908;2024-02-23T04:21:31;7.70;;;4.40;;
1993;SDS011;998;49.906;10.908;2024-02-23T04:23:58;10.43;;;3.47;;
1993;SDS011;998;49.906;10.908;2024-02-23T04:26:26;8.77;;;3.67;;
1993;SDS011;998;49.906;10.908;2024-02-23T04:28:53;6.10;;;3.33;;
1993;SDS011;998;49.906;10.908;2024-02-23T04:31:20;8.23;;;2.80;;
1993;SDS011;998;49.906;10.908;2024-02-23T04:33:48;6.33;;;2.93;;
1993;SDS011;998;49.906;10.908;2024-02-23T04:36:18;6.83;;;2.90;;
1993;SDS011;998;49.906;10.908;2024-02-23T04:38:46;50.30;;;31.70;;
1993;SDS011;998;49.906;10.908;2024-02-23T04:41:14;19.83;;;18.33;;
1993;SDS011;998;49.906;10.908;2024-02-23T04:43:45;31.63;;;28.40;;
1993;SDS011;998;49.906;10.908;2024-02-23T04:46:15;272.27;;;68.00;;
1993;SDS011;998;49.906;10.908;2024-02-23T04:48:42;271.07;;;68.70;;
1993;SDS011;998;49.906;10.908;2024-02-23T04:51:10;284.90;;;69.13;;
1993;SDS011;998;49.906;10.908;2024-02-23T04:53:39;276.73;;;67.27;;
1993;SDS011;998;49.906;10.908;2024-02-23T04:56:07;269.23;;;66.03;;
1993;SDS011;998;49.906;10.908;2024-02-23T04:58:34;289.40;;;67.37;;
1993;SDS011;998;49.906;10.908;2024-02-23T05:01:03;289.10;;;72.07;;
1993;SDS011;998;49.906;10.908;2024-02-23T05:03:30;275.87;;;69.80;;
1993;SDS011;998;49.906;10.908;2024-02-23T05:05:58;255.40;;;65.23;;
1993;SDS011;998;49.906;10.908;2024-02-23T05:08:25;259.30;;;69.37;;
1993;SDS011;998;49.906;10.908;2024-02-23T05:10:54;274.07;;;70.00;;
1993;SDS011;998;49.906;10.908;2024-02-23T05:13:21;265.67;;;69.60;;
1993;SDS011;998;49.906;10.908;2024-02-23T05:15:49;261.67;;;65.67;;
1993;SDS011;998;49.906;10.908;2024-02-23T05:18:17;272.30;;;65.63;;
1993;SDS011;998;49.906;10.908;2024-02-23T05:20:44;268.40;;;72.53;;
1993;SDS011;998;49.906;10.908;2024-02-23T05:23:12;210.80;;;65.43;;
1993;SDS011;998;49.906;10.908;2024-02-23T05:25:40;251.30;;;70.57;;
1993;SDS011;998;49.906;10.908;2024-02-23T05:28:09;224.50;;;63.17;;
1993;SDS011;998;49.906;10.908;2024-02-23T05:30:37;217.13;;;65.80;;
1993;SDS011;998;49.906;10.908;2024-02-23T05:33:04;228.33;;;118.93;;
1993;SDS011;998;49.906;10.908;2024-02-23T05:35:32;242.47;;;216.87;;
1993;SDS011;998;49.906;10.908;2024-02-23T05:37:59;255.40;;;64.70;;
1993;SDS011;998;49.906;10.908;2024-02-23T05:40:27;58.20;;;39.70;;
1993;SDS011;998;49.906;10.908;2024-02-23T05:42:54;9.53;;;3.23;;
1993;SDS011;998;49.906;10.908;2024-02-23T05:45:23;6.30;;;3.10;;
1993;SDS011;998;49.906;10.908;2024-02-23T05:47:50;7.93;;;4.13;;
1993;SDS011;998;49.906;10.908;2024-02-23T05:50:18;8.53;;;3.33;;
1993;SDS011;998;49.906;10.908;2024-02-23T05:52:45;8.67;;;3.43;;
1993;SDS011;998;49.906;10.908;2024-02-23T05:55:13;4.93;;;2.53;;
1993;SDS011;998;49.906;10.908;2024-02-23T05:57:40;7.40;;;3.40;;
1993;SDS011;998;49.906;10.908;2024-02-23T06:00:08;5.80;;;2.97;;
1993;SDS011;998;49.906;10.908;2024-02-23T06:02:37;5.10;;;2.50;;
1993;SDS011;998;49.906;10.908;2024-02-23T06:05:05;4.57;;;2.37;;
1993;SDS011;998;49.906;10.908;2024-02-23T06:07:33;6.23;;;2.37;;
1993;SDS011;998;49.906;10.908;2024-02-23T06:10:02;4.83;;;2.47;;
1993;SDS011;998;49.906;10.908;2024-02-23T06:12:30;5.50;;;3.03;;
1993;SDS011;998;49.906;10.908;2024-02-23T06:14:57;5.13;;;2.37;;
1993;SDS011;998;49.906;10.908;2024-02-23T06:17:25;6.90;;;3.60;;
1993;SDS011;998;49.906;10.908;2024-02-23T06:19:54;10.27;;;4.20;;
1993;SDS011;998;49.906;10.908;2024-02-23T06:22:22;7.27;;;2.63;;
1993;SDS011;998;49.906;10.908;2024-02-23T06:24:50;8.53;;;4.30;;
1993;SDS011;998;49.906;10.908;2024-02-23T06:27:18;5.63;;;2.70;;
1993;SDS011;998;49.906;10.908;2024-02-23T06:29:47;8.73;;;2.43;;
1993;SDS011;998;49.906;10.908;2024-02-23T06:32:15;5.50;;;2.63;;
1993;SDS011;998;49.906;10.908;2024-02-23T06:34:43;5.83;;;2.70;;
1993;SDS011;998;49.906;10.908;2024-02-23T06:37:11;5.30;;;2.90;;
1993;SDS011;998;49.906;10.908;2024-02-23T06:39:39;6.03;;;3.40;;
1993;SDS011;998;49.906;10.908;2024-02-23T06:42:07;9.70;;;3.03;;
1993;SDS011;998;49.906;10.908;2024-02-23T06:44:34;7.80;;;2.40;;
1993;SDS011;998;49.906;10.908;2024-02-23T06:47:02;12.63;;;3.70;;
1993;SDS011;998;49.906;10.908;2024-02-23T06:49:29;13.53;;;2.97;;
1993;SDS011;998;49.906;10.908;2024-02-23T06:51:56;6.30;;;3.83;;
1993;SDS011;998;49.906;10.908;2024-02-23T06:54:25;5.90;;;3.00;;
1993;SDS011;998;49.906;10.908;2024-02-23T06:56:53;6.30;;;2.63;;
1993;SDS011;998;49.906;10.908;2024-02-23T06:59:21;6.10;;;3.37;;
1993;SDS011;998;49.906;10.908;2024-02-23T07:01:49;7.67;;;3.10;;
1993;SDS011;998;49.906;10.908;2024-02-23T07:04:17;4.93;;;2.47;;
1993;SDS011;998;49.906;10.908;2024-02-23T07:06:45;4.80;;;2.37;;
1993;SDS011;998;49.906;10.908;2024-02-23T07:09:12;6.00;;;3.10;;
1993;SDS011;998;49.906;10.908;2024-02-23T07:11:41;13.43;;;3.33;;
1993;SDS011;998;49.906;10.908;2024-02-23T07:14:10;6.80;;;3.47;;
1993;SDS011;998;49.906;10.908;2024-02-23T07:16:39;7.10;;;3.43;;
1993;SDS011;998;49.906;10.908;2024-02-23T07:19:07;5.73;;;2.93;;
1993;SDS011;998;49.906;10.908;2024-02-23T07:21:36;10.07;;;3.97;;
1993;SDS011;998;49.906;10.908;2024-02-23T07:24:03;7.30;;;2.70;;
1993;SDS011;998;49.906;10.908;2024-02-23T07:26:46;9.13;;;3.13;;
1993;SDS011;998;49.906;10.908;2024-02-23T07:29:13;10.20;;;3.53;;
1993;SDS011;998;49.906;10.908;2024-02-23T07:31:41;7.70;;;3.57;;
1993;SDS011;998;49.906;10.908;2024-02-23T07:34:08;7.50;;;4.23;;
1993;SDS011;998;49.906;10.908;2024-02-23T07:36:37;8.43;;;4.63;;
1993;SDS011;998;49.906;10.908;2024-02-23T07:39:05;6.97;;;3.47;;
1993;SDS011;998;49.906;10.908;2024-02-23T07:41:32;10.20;;;2.83;;
1993;SDS011;998;49.906;10.908;2024-02-23T07:44:01;4.43;;;2.30;;
1993;SDS011;998;49.906;10.908;2024-02-23T07:46:28;5.33;;;3.07;;
1993;SDS011;998;49.906;10.908;2024-02-23T07:48:55;8.80;;;2.60;;
1993;SDS011;998;49.906;10.908;2024-02-23T07:51:22;6.00;;;3.43;;
1993;SDS011;998;49.906;10.908;2024-02-23T07:53:49;7.53;;;3.70;;
1993;SDS011;998;49.906;10.908;2024-02-23T07:56:17;5.00;;;2.77;;
1993;SDS011;998;49.906;10.908;2024-02-23T07:58:44;8.20;;;3.03;;
1993;SDS011;998;49.906;10.908;2024-02-23T08:01:13;3.57;;;1.77;;
1993;SDS011;998;49.906;10.908;2024-02-23T08:03:41;5.87;;;2.90;;
1993;SDS011;998;49.906;10.908;2024-02-23T08:06:08;6.07;;;2.90;;
1993;SDS011;998;49.906;10.908;2024-02-23T08:08:35;7.23;;;3.70;;
1993;SDS011;998;49.906;10.908;2024-02-23T08:11:03;5.97;;;2.60;;
1993;SDS011;998;49.906;10.908;2024-02-23T08:13:30;6.37;;;2.60;;
1993;SDS011;998;49.906;10.908;2024-02-23T08:15:58;10.93;;;2.50;;
1993;SDS011;998;49.906;10.908;2024-02-23T08:18:27;6.10;;;3.00;;
1993;SDS011;998;49.906;10.908;2024-02-23T08:20:54;6.07;;;2.83;;
1993;SDS011;998;49.906;10.908;2024-02-23T08:23:21;8.27;;;3.73;;
1993;SDS011;998;49.906;10.908;2024-02-23T08:25:50;5.80;;;2.20;;
1993;SDS011;998;49.906;10.908;2024-02-23T08:28:18;6.80;;;3.10;;
1993;SDS011;998;49.906;10.908;2024-02-23T08:30:46;7.60;;;4.00;;
1993;SDS011;998;49.906;10.908;2024-02-23T08:33:13;6.50;;;3.77;;
1993;SDS011;998;49.906;10.908;2024-02-23T08:35:42;8.40;;;3.80;;
1993;SDS011;998;49.906;10.908;2024-02-23T08:38:10;7.00;;;3.30;;
1993;SDS011;998;49.906;10.908;2024-02-23T08:40:37;9.47;;;3.77;;
1993;SDS011;998;49.906;10.908;2024-02-23T08:43:05;5.80;;;3.20;;
1993;SDS011;998;49.906;10.908;2024-02-23T08:45:32;7.60;;;4.27;;
1993;SDS011;998;49.906;10.908;2024-02-23T08:47:59;8.33;;;3.10;;
1993;SDS011;998;49.906;10.908;2024-02-23T08:50:27;8.60;;;3.97;;
1993;SDS011;998;49.906;10.908;2024-02-23T08:52:56;5.33;;;2.90;;
1993;SDS011;998;49.906;10.908;2024-02-23T08:55:23;5.00;;;2.60;;
1993;SDS011;998;49.906;10.908;2024-02-23T08:57:51;5.60;;;3.20;;
1993;SDS011;998;49.906;10.908;2024-02-23T09:00:18;12.93;;;3.87;;
1993;SDS011;998;49.906;10.908;2024-02-23T09:02:46;4.90;;;3.10;;
1993;SDS011;998;49.906;10.908;2024-02-23T09:05:15;6.57;;;2.97;;
1993;SDS011;998;49.906;10.908;2024-02-23T09:07:42;6.80;;;3.40;;
1993;SDS011;998;49.906;10.908;2024-02-23T09:10:11;12.90;;;3.80;;
1993;SDS011;998;49.906;10.908;2024-02-23T09:12:39;6.20;;;3.10;;
1993;SDS011;998;49.906;10.908;2024-02-23T09:15:07;5.93;;;2.40;;
1993;SDS011;998;49.906;10.908;2024-02-23T09:17:35;8.77;;;3.47;;
1993;SDS011;998;49.906;10.908;2024-02-23T09:20:02;10.27;;;2.50;;
1993;SDS011;998;49.906;10.908;2024-02-23T09:22:30;6.00;;;3.30;;
1993;SDS011;998;49.906;10.908;2024-02-23T09:24:57;7.37;;;3.27;;
1993;SDS011;998;49.906;10.908;2024-02-23T09:27:26;5.80;;;2.90;;
1993;SDS011;998;49.906;10.908;2024-02-23T09:29:53;6.00;;;3.10;;
1993;SDS011;998;49.906;10.908;2024-02-23T09:32:21;15.47;;;3.47;;
1993;SDS011;998;49.906;10.908;2024-02-23T09:34:48;9.00;;;3.60;;
1993;SDS011;998;49.906;10.908;2024-02-23T09:37:15;7.13;;;2.73;;
1993;SDS011;998;49.906;10.908;2024-02-23T09:39:43;6.43;;;2.77;;
1993;SDS011;998;49.906;10.908;2024-02-23T09:42:10;4.77;;;2.20;;
1993;SDS011;998;49.906;10.908;2024-02-23T09:44:39;7.37;;;3.27;;
1993;SDS011;998;49.906;10.908;2024-02-23T09:47:09;5.00;;;2.57;;
1993;SDS011;998;49.906;10.908;2024-02-23T09:49:38;6.10;;;2.63;;
1993;SDS011;998;49.906;10.908;2024-02-23T09:52:07;8.73;;;3.13;;
1993;SDS011;998;49.906;10.908;2024-02-23T09:54:35;6.80;;;2.77;;
1993;SDS011;998;49.906;10.908;2024-02-23T09:57:04;8.73;;;3.80;;
1993;SDS011;998;49.906;10.908;2024-02-23T09:59:34;5.80;;;2.63;;
1993;SDS011;998;49.906;10.908;2024-02-23T10:02:03;6.93;;;3.57;;
1993;SDS011;998;49.906;10.908;2024-02-23T10:04:35;6.20;;;2.57;;
1993;SDS011;998;49.906;10.908;2024-02-23T10:07:04;7.13;;;3.87;;
1993;SDS011;998;49.906;10.908;2024-02-23T10:09:32;7.17;;;2.93;;
1993;SDS011;998;49.906;10.908;2024-02-23T10:11:59;6.30;;;2.63;;
1993;SDS011;998;49.906;10.908;2024-02-23T10:14:27;5.37;;;2.77;;
1993;SDS011;998;49.906;10.908;2024-02-23T10:16:55;6.70;;;2.40;;
1993;SDS011;998;49.906;10.908;2024-02-23T10:19:24;7.73;;;3.47;;
1993;SDS011;998;49.906;10.908;2024-02-23T10:21:54;7.80;;;3.17;;
1993;SDS011;998;49.906;10.908;2024-02-23T10:24:23;7.73;;;2.13;;
1993;SDS011;998;49.906;10.908;2024-02-23T10:26:51;9.93;;;5.40;;
1993;SDS011;998;49.906;10.908;2024-02-23T10:29:18;7.10;;;3.03;;
1993;SDS011;998;49.906;10.908;2024-02-23T10:31:46;6.30;;;3.47;;
1993;SDS011;998;49.906;10.908;2024-02-23T10:34:17;6.67;;;3.00;;
1993;SDS011;998;49.906;10.908;2024-02-23T10:36:47;8.50;;;3.47;;
1993;SDS011;998;49.906;10.908;2024-02-23T10:39:16;6.83;;;3.60;;
1993;SDS011;998;49.906;10.908;2024-02-23T10:41:46;8.43;;;3.93;;
1993;SDS011;998;49.906;10.908;2024-02-23T10:44:18;6.13;;;2.67;;
1993;SDS011;998;49.906;10.908;2024-02-23T10:46:46;11.23;;;3.20;;
1993;SDS011;998;49.906;10.908;2024-02-23T10:49:16;7.50;;;3.60;;
1993;SDS011;998;49.906;10.908;2024-02-23T10:51:49;8.57;;;4.00;;
1993;SDS011;998;49.906;10.908;2024-02-23T10:54:18;6.00;;;2.67;;
1993;SDS011;998;49.906;10.908;2024-02-23T10:56:46;7.30;;;2.87;;
1993;SDS011;998;49.906;10.908;2024-02-23T10:59:15;7.23;;;3.50;;
1993;SDS011;998;49.906;10.908;2024-02-23T11:01:44;7.87;;;3.93;;
1993;SDS011;998;49.906;10.908;2024-02-23T11:04:14;5.10;;;2.60;;
1993;SDS011;998;49.906;10.908;2024-02-23T11:06:42;12.63;;;4.17;;
1993;SDS011;998;49.906;10.908;2024-02-23T11:09:16;9.30;;;4.50;;
1993;SDS011;998;49.906;10.908;2024-02-23T11:11:52;8.47;;;4.53;;
1993;SDS011;998;49.906;10.908;2024-02-23T11:14:29;8.90;;;3.67;;
1993;SDS011;998;49.906;10.908;2024-02-23T11:16:57;6.90;;;3.60;;
1993;SDS011;998;49.906;10.908;2024-02-23T11:19:32;9.63;;;4.80;;
1993;SDS011;998;49.906;10.908;2024-02-23T11:22:02;7.20;;;2.70;;
1993;SDS011;998;49.906;10.908;2024-02-23T11:24:30;6.50;;;3.67;;
1993;SDS011;998;49.906;10.908;2024-02-23T11:26:58;5.80;;;3.10;;
1993;SDS011;998;49.906;10.908;2024-02-23T11:29:26;7.20;;;4.00;;
1993;SDS011;998;49.906;10.908;2024-02-23T11:31:54;6.00;;;2.90;;
1993;SDS011;998;49.906;10.908;2024-02-23T11:34:26;12.20;;;3.77;;
1993;SDS011;998;49.906;10.908;2024-02-23T11:36:54;3.83;;;1.70;;
1993;SDS011;998;49.906;10.908;2024-02-23T11:39:25;6.00;;;2.30;;
1993;SDS011;998;49.906;10.908;2024-02-23T11:41:53;7.17;;;4.00;;
1993;SDS011;998;49.906;10.908;2024-02-23T11:44:21;7.97;;;4.50;;
1993;SDS011;998;49.906;10.908;2024-02-23T11:46:49;8.20;;;3.40;;
1993;SDS011;998;49.906;10.908;2024-02-23T11:49:16;5.60;;;3.17;;
1993;SDS011;998;49.906;10.908;2024-02-23T11:51:44;6.90;;;4.00;;
1993;SDS011;998;49.906;10.908;2024-02-23T11:54:11;4.83;;;2.07;;
1993;SDS011;998;49.906;10.908;2024-02-23T11:56:41;8.23;;;3.43;;
1993;SDS011;998;49.906;10.908;2024-02-23T11:59:08;6.80;;;3.23;;
1993;SDS011;998;49.906;10.908;2024-02-23T12:01:36;8.93;;;3.97;;
1993;SDS011;998;49.906;10.908;2024-02-23T12:04:04;4.13;;;2.13;;
1993;SDS011;998;49.906;10.908;2024-02-23T12:06:32;9.17;;;4.70;;
1993;SDS011;998;49.906;10.908;2024-02-23T12:09:00;7.60;;;2.70;;
1993;SDS011;998;49.906;10.908;2024-02-23T12:11:27;4.60;;;2.20;;
1993;SDS011;998;49.906;10.908;2024-02-23T12:13:57;7.80;;;3.27;;
1993;SDS011;998;49.906;10.908;2024-02-23T12:16:25;8.17;;;3.53;;
1993;SDS011;998;49.906;10.908;2024-02-23T12:18:52;8.10;;;3.23;;
1993;SDS011;998;49.906;10.908;2024-02-23T12:21:21;9.73;;;3.73;;
1993;SDS011;998;49.906;10.908;2024-02-23T12:23:50;4.87;;;2.67;;
1993;SDS011;998;49.906;10.908;2024-02-23T12:26:18;7.83;;;3.87;;
1993;SDS011;998;49.906;10.908;2024-02-23T12:28:46;6.33;;;3.43;;
1993;SDS011;998;49.906;10.908;2024-02-23T12:31:15;11.13;;;3.10;;
1993;SDS011;998;49.906;10.908;2024-02-23T12:33:42;6.73;;;3.43;;
1993;SDS011;998;49.906;10.908;2024-02-23T12:36:13;6.23;;;2.87;;
1993;SDS011;998;49.906;10.908;2024-02-23T12:38:41;6.90;;;3.33;;
1993;SDS011;998;49.906;10.908;2024-02-23T12:41:08;5.33;;;3.03;;
1993;SDS011;998;49.906;10.908;2024-02-23T12:43:36;5.13;;;2.73;;
1993;SDS011;998;49.906;10.908;2024-02-23T12:46:04;8.23;;;3.67;;
1993;SDS011;998;49.906;10.908;2024-02-23T12:48:35;6.90;;;2.77;;
1993;SDS011;998;49.906;10.908;2024-02-23T12:51:02;6.47;;;3.50;;
1993;SDS011;998;49.906;10.908;2024-02-23T12:53:31;7.33;;;3.40;;
1993;SDS011;998;49.906;10.908;2024-02-23T12:56:01;5.80;;;3.00;;
1993;SDS011;998;49.906;10.908;2024-02-23T12:58:29;5.43;;;2.30;;
1993;SDS011;998;49.906;10.908;2024-02-23T13:00:56;5.97;;;3.20;;
1993;SDS011;998;49.906;10.908;2024-02-23T13:03:24;6.50;;;3.17;;
1993;SDS011;998;49.906;10.908;2024-02-23T13:05:53;5.17;;;2.67;;
1993;SDS011;998;49.906;10.908;2024-02-23T13:08:21;6.37;;;4.00;;
1993;SDS011;998;49.906;10.908;2024-02-23T13:10:49;7.00;;;3.97;;
1993;SDS011;998;49.906;10.908;2024-02-23T13:13:16;5.60;;;3.07;;
1993;SDS011;998;49.906;10.908;2024-02-23T13:15:45;7.80;;;3.47;;
1993;SDS011;998;49.906;10.908;2024-02-23T13:18:13;6.63;;;2.60;;
1993;SDS011;998;49.906;10.908;2024-02-23T13:20:41;7.90;;;5.03;;
1993;SDS011;998;49.906;10.908;2024-02-23T13:23:10;5.10;;;2.73;;
1993;SDS011;998;49.906;10.908;2024-02-23T13:25:38;8.47;;;3.20;;
1993;SDS011;998;49.906;10.908;2024-02-23T13:28:06;9.70;;;3.47;;
1993;SDS011;998;49.906;10.908;2024-02-23T13:30:34;4.37;;;2.17;;
1993;SDS011;998;49.906;10.908;2024-02-23T13:33:02;5.70;;;2.57;;
1993;SDS011;998;49.906;10.908;2024-02-23T13:35:31;8.07;;;3.50;;
1993;SDS011;998;49.906;10.908;2024-02-23T13:37:58;7.23;;;3.73;;
1993;SDS011;998;49.906;10.908;2024-02-23T13:40:30;6.93;;;2.87;;
1993;SDS011;998;49.906;10.908;2024-02-23T13:42:57;7.20;;;2.90;;
1993;SDS011;998;49.906;10.908;2024-02-23T13:45:24;7.63;;;3.63;;
1993;SDS011;998;49.906;10.908;2024-02-23T13:47:55;5.77;;;3.17;;
1993;SDS011;998;49.906;10.908;2024-02-23T13:50:23;7.70;;;4.50;;
1993;SDS011;998;49.906;10.908;2024-02-23T13:52:51;8.57;;;3.67;;
1993;SDS011;998;49.906;10.908;2024-02-23T13:55:18;7.13;;;4.07;;
1993;SDS011;998;49.906;10.908;2024-02-23T13:57:47;6.50;;;3.13;;
1993;SDS011;998;49.906;10.908;2024-02-23T14:00:15;7.47;;;4.37;;
1993;SDS011;998;49.906;10.908;2024-02-23T14:02:44;19.63;;;5.93;;
1993;SDS011;998;49.906;10.908;2024-02-23T14:05:11;7.47;;;4.20;;
1993;SDS011;998;49.906;10.908;2024-02-23T14:07:40;10.80;;;5.60;;
1993;SDS011;998;49.906;10.908;2024-02-23T14:10:07;9.00;;;4.80;;
1993;SDS011;998;49.906;10.908;2024-02-23T14:12:35;8.90;;;4.80;;
1993;SDS011;998;49.906;10.908;2024-02-23T14:15:04;13.50;;;4.73;;
1993;SDS011;998;49.906;10.908;2024-02-23T14:17:32;12.53;;;7.30;;
1993;SDS011;998;49.906;10.908;2024-02-23T14:20:00;14.70;;;7.00;;
1993;SDS011;998;49.906;10.908;2024-02-23T14:22:28;8.37;;;3.87;;
1993;SDS011;998;49.906;10.908;2024-02-23T14:24:56;5.70;;;2.93;;
1993;SDS011;998;49.906;10.908;2024-02-23T14:27:24;5.50;;;3.07;;
1993;SDS011;998;49.906;10.908;2024-02-23T14:29:52;8.33;;;3.33;;
1993;SDS011;998;49.906;10.908;2024-02-23T14:32:21;8.67;;;4.50;;
1993;SDS011;998;49.906;10.908;2024-02-23T14:34:48;9.37;;;5.87;;
1993;SDS011;998;49.906;10.908;2024-02-23T14:37:16;8.60;;;4.87;;
1993;SDS011;998;49.906;10.908;2024-02-23T14:39:43;7.63;;;3.93;;
1993;SDS011;998;49.906;10.908;2024-02-23T14:42:10;8.90;;;5.07;;
1993;SDS011;998;49.906;10.908;2024-02-23T14:44:38;7.10;;;3.87;;
1993;SDS011;998;49.906;10.908;2024-02-23T14:47:05;11.13;;;4.40;;
1993;SDS011;998;49.906;10.908;2024-02-23T14:49:34;5.73;;;3.03;;
1993;SDS011;998;49.906;10.908;2024-02-23T14:52:02;7.83;;;4.57;;
1993;SDS011;998;49.906;10.908;2024-02-23T14:54:29;6.43;;;3.90;;
1993;SDS011;998;49.906;10.908;2024-02-23T14:56:58;5.27;;;2.80;;
1993;SDS011;998;49.906;10.908;2024-02-23T14:59:25;8.47;;;4.93;;
1993;SDS011;998;49.906;10.908;2024-02-23T15:01:53;7.57;;;4.10;;
1993;SDS011;998;49.906;10.908;2024-02-23T15:04:20;11.80;;;4.93;;
1993;SDS011;998;49.906;10.908;2024-02-23T15:06:49;6.53;;;3.70;;
1993;SDS011;998;49.906;10.908;2024-02-23T15:09:16;8.63;;;4.00;;
1993;SDS011;998;49.906;10.908;2024-02-23T15:11:44;7.37;;;3.73;;
1993;SDS011;998;49.906;10.908;2024-02-23T15:14:11;9.27;;;4.20;;
1993;SDS011;998;49.906;10.908;2024-02-23T15:16:40;9.60;;;4.40;;
1993;SDS011;998;49.906;10.908;2024-02-23T15:19:08;6.00;;;3.10;;